Time;durP1;ratioP1;P1;durP2;ratioP2;P2;SDS_P1;SDS_P2;PMS_P1;PMS_P2;Temp;Humidity;BMP_temperature;BMP_pressure;BME280_temperature;BME280_humidity;BME280_pressure;Samples;Min_cycle;Max_cycle;Signal;HPM_P1;HPM_P2
2022/07/17 00:01:00;;;;;;;3.33;2.50;;;29.50;67.60;;;;;;5051435;28;20040;-82
2022/07/17 00:03:25;;;;;;;3.67;2.42;;;29.50;67.50;;;;;;5050699;28;20122;-81
2022/07/17 00:05:51;;;;;;;4.45;2.75;;;29.50;67.30;;;;;;5052084;28;20033;-81
2022/07/17 00:08:17;;;;;;;4.65;2.90;;;29.40;67.10;;;;;;5050909;28;20037;-81
2022/07/17 00:10:43;;;;;;;5.25;3.30;;;29.50;67.10;;;;;;5049259;28;20124;-82
2022/07/17 00:13:10;;;;;;;3.33;3.03;;;29.40;66.80;;;;;;5050335;28;20064;-82
2022/07/17 00:15:35;;;;;;;4.18;2.85;;;29.40;66.60;;;;;;5044197;28;20032;-82
2022/07/17 00:18:02;;;;;;;9.88;3.55;;;29.50;66.50;;;;;;5050238;28;20041;-81
2022/07/17 00:20:29;;;;;;;5.78;3.63;;;29.40;66.50;;;;;;5049460;28;20017;-82
2022/07/17 00:22:55;;;;;;;4.35;3.38;;;29.40;66.30;;;;;;5050790;28;20056;-81
2022/07/17 00:25:21;;;;;;;5.13;3.20;;;29.40;66.00;;;;;;5049413;28;20039;-82
2022/07/17 00:27:47;;;;;;;3.15;2.85;;;29.40;65.90;;;;;;5051102;28;20041;-82
2022/07/17 00:30:13;;;;;;;4.03;3.40;;;29.30;65.60;;;;;;5050440;28;20029;-83
2022/07/17 00:32:40;;;;;;;4.95;2.95;;;29.30;65.70;;;;;;5049596;28;20090;-82
2022/07/17 00:35:07;;;;;;;3.80;3.05;;;29.30;65.60;;;;;;5031538;28;20032;-82
2022/07/17 00:37:44;;;;;;;6.53;2.90;;;29.20;65.40;;;;;;5051218;28;20385;-82
2022/07/17 00:40:13;;;;;;;3.72;2.65;;;29.20;65.60;;;;;;5050700;28;20079;-81
2022/07/17 00:42:43;;;;;;;5.30;3.00;;;29.20;65.40;;;;;;5051080;28;20029;-81
2022/07/17 00:45:10;;;;;;;4.60;3.15;;;29.20;65.50;;;;;;5049749;28;20048;-81
2022/07/17 00:47:53;;;;;;;6.32;3.15;;;29.10;65.30;;;;;;5050796;28;20092;-81
2022/07/17 00:50:21;;;;;;;7.43;3.28;;;29.10;65.40;;;;;;5050602;28;20041;-81
2022/07/17 00:52:47;;;;;;;2.80;2.60;;;29.10;65.40;;;;;;5050886;28;20040;-81
2022/07/17 00:55:13;;;;;;;6.13;3.30;;;29.10;65.60;;;;;;5048191;28;20412;-81
2022/07/17 00:57:40;;;;;;;4.80;3.45;;;29.00;65.70;;;;;;5051260;28;20071;-81
2022/07/17 01:00:10;;;;;;;3.83;2.97;;;29.00;65.40;;;;;;5050922;28;20033;-81
2022/07/17 01:02:39;;;;;;;13.93;3.08;;;28.90;65.30;;;;;;5049863;28;20120;-81
2022/07/17 01:05:05;;;;;;;3.70;2.70;;;28.90;65.40;;;;;;5050318;28;20037;-82
2022/07/17 01:07:32;;;;;;;3.90;2.88;;;28.90;65.20;;;;;;5050205;28;20025;-82
2022/07/17 01:09:58;;;;;;;3.13;2.75;;;28.90;65.30;;;;;;5032808;28;20021;-82
2022/07/17 01:12:24;;;;;;;6.95;3.03;;;28.90;65.30;;;;;;5048312;28;20033;-81
2022/07/17 01:14:52;;;;;;;4.32;2.78;;;28.80;65.60;;;;;;5050843;28;20339;-81
2022/07/17 01:17:18;;;;;;;5.13;2.78;;;28.70;65.70;;;;;;5044461;28;20056;-82
2022/07/17 01:19:43;;;;;;;3.08;2.78;;;28.70;65.80;;;;;;5050569;28;20438;-81
2022/07/17 01:22:09;;;;;;;3.47;2.88;;;28.70;65.90;;;;;;5050425;28;20366;-81
2022/07/17 01:24:39;;;;;;;4.93;2.90;;;28.70;66.10;;;;;;5033136;28;20037;-82
2022/07/17 01:27:05;;;;;;;5.82;3.38;;;28.70;66.10;;;;;;5042798;28;20038;-81
2022/07/17 01:29:31;;;;;;;6.97;2.97;;;28.70;66.00;;;;;;5050049;28;20032;-81
2022/07/17 01:31:56;;;;;;;6.18;3.60;;;28.70;66.10;;;;;;5050783;28;20033;-81
2022/07/17 01:34:22;;;;;;;5.10;2.72;;;28.70;66.20;;;;;;5052910;28;20033;-81
2022/07/17 01:36:48;;;;;;;3.63;2.92;;;28.60;65.80;;;;;;5054265;28;20099;-81
2022/07/17 01:39:13;;;;;;;4.35;2.67;;;28.60;65.70;;;;;;5052983;28;20044;-81
2022/07/17 01:41:39;;;;;;;4.00;2.97;;;28.60;65.70;;;;;;5054210;28;20025;-81
2022/07/17 01:44:06;;;;;;;6.55;3.13;;;28.60;66.30;;;;;;5053005;28;20063;-81
2022/07/17 01:46:32;;;;;;;3.85;2.95;;;28.60;65.70;;;;;;5045856;28;20377;-81
2022/07/17 01:48:58;;;;;;;3.47;3.17;;;28.60;65.60;;;;;;5054705;28;20082;-81
2022/07/17 01:51:24;;;;;;;3.55;2.97;;;28.60;65.70;;;;;;5053528;28;20029;-83
2022/07/17 01:53:49;;;;;;;3.60;2.80;;;28.50;65.50;;;;;;5052664;28;20028;-83
2022/07/17 01:56:15;;;;;;;5.32;3.65;;;28.50;65.60;;;;;;5034700;28;20472;-82
2022/07/17 01:58:41;;;;;;;3.35;2.90;;;28.50;65.80;;;;;;5033043;28;20073;-82
2022/07/17 02:01:06;;;;;;;3.70;3.33;;;28.50;65.90;;;;;;5050478;28;20024;-82
2022/07/17 02:03:32;;;;;;;3.40;3.10;;;28.40;66.00;;;;;;5052692;28;20082;-82
2022/07/17 02:05:58;;;;;;;5.40;3.53;;;28.40;66.30;;;;;;5053875;28;20078;-82
2022/07/17 02:08:23;;;;;;;4.70;3.30;;;28.40;66.70;;;;;;5053848;28;20495;-83
2022/07/17 02:10:49;;;;;;;5.53;3.08;;;28.40;66.70;;;;;;5048715;28;20028;-84
2022/07/17 02:13:15;;;;;;;5.10;3.10;;;28.30;66.80;;;;;;5052028;28;20647;-83
2022/07/17 02:15:40;;;;;;;3.50;3.08;;;28.30;66.90;;;;;;5054298;28;20373;-82
2022/07/17 02:18:06;;;;;;;4.15;3.17;;;28.30;67.00;;;;;;5050687;28;20036;-82
2022/07/17 02:20:31;;;;;;;3.85;3.13;;;28.30;67.20;;;;;;5053055;28;20025;-81
2022/07/17 02:22:57;;;;;;;6.13;3.30;;;28.20;67.20;;;;;;5053332;28;20370;-81
2022/07/17 02:25:23;;;;;;;5.65;3.17;;;28.30;67.10;;;;;;5052459;28;20661;-81
2022/07/17 02:27:49;;;;;;;3.63;3.30;;;28.30;67.10;;;;;;5053828;28;20059;-81
2022/07/17 02:30:16;;;;;;;4.45;2.90;;;28.30;67.00;;;;;;5051767;28;20128;-81
2022/07/17 02:32:43;;;;;;;4.63;3.33;;;28.30;66.60;;;;;;5053622;28;20028;-81
2022/07/17 02:35:11;;;;;;;6.88;3.30;;;28.20;66.40;;;;;;5052352;28;20079;-81
2022/07/17 02:37:38;;;;;;;4.82;3.08;;;28.30;66.10;;;;;;5053525;28;20071;-81
2022/07/17 02:40:04;;;;;;;2.85;2.58;;;28.30;65.60;;;;;;5045102;28;20033;-80
2022/07/17 02:42:30;;;;;;;3.30;2.53;;;28.30;65.30;;;;;;5052640;28;20366;-81
2022/07/17 02:44:58;;;;;;;3.88;2.60;;;28.20;64.80;;;;;;5051709;28;20135;-81
2022/07/17 02:47:27;;;;;;;3.08;2.47;;;28.20;64.60;;;;;;5051540;28;20820;-81
2022/07/17 02:49:53;;;;;;;4.10;3.20;;;28.10;64.30;;;;;;5053337;28;20040;-81
2022/07/17 02:52:19;;;;;;;2.75;2.38;;;28.20;64.10;;;;;;5050762;28;20033;-81
2022/07/17 02:54:45;;;;;;;2.95;2.65;;;28.10;63.80;;;;;;5053146;28;20036;-80
2022/07/17 02:57:12;;;;;;;2.92;2.70;;;28.10;64.10;;;;;;5033490;28;20074;-80
2022/07/17 02:59:38;;;;;;;3.65;2.38;;;28.10;63.30;;;;;;5053119;28;20121;-81
2022/07/17 03:02:03;;;;;;;5.32;2.63;;;28.10;62.90;;;;;;5032609;28;20500;-81
2022/07/17 03:04:29;;;;;;;4.28;2.58;;;28.10;62.80;;;;;;5051689;28;20449;-81
2022/07/17 03:06:55;;;;;;;4.00;2.42;;;28.10;62.30;;;;;;5052901;28;20571;-81
2022/07/17 03:09:21;;;;;;;2.80;1.85;;;28.10;62.20;;;;;;5051694;28;20119;-81
2022/07/17 03:11:46;;;;;;;2.60;2.00;;;28.00;61.90;;;;;;5052717;28;20033;-82
2022/07/17 03:14:12;;;;;;;5.53;2.10;;;28.00;61.50;;;;;;5051748;28;20059;-82
2022/07/17 03:16:38;;;;;;;3.55;2.30;;;28.00;61.20;;;;;;5051133;28;20100;-80
2022/07/17 03:19:03;;;;;;;4.03;2.60;;;28.00;61.00;;;;;;5051210;28;20053;-80
2022/07/17 03:21:29;;;;;;;6.53;2.33;;;27.90;60.40;;;;;;5052010;28;20021;-81
2022/07/17 03:23:55;;;;;;;2.67;1.63;;;27.90;60.70;;;;;;5052430;28;20029;-81
2022/07/17 03:26:21;;;;;;;4.25;2.45;;;27.90;60.50;;;;;;5051262;28;20037;-80
2022/07/17 03:28:46;;;;;;;3.95;1.67;;;27.90;60.20;;;;;;5051203;28;20102;-80
2022/07/17 03:31:12;;;;;;;3.75;2.05;;;27.90;60.20;;;;;;5033438;28;20058;-80
2022/07/17 03:33:38;;;;;;;1.85;1.70;;;27.80;60.00;;;;;;5052019;28;20033;-81
2022/07/17 03:36:03;;;;;;;4.38;2.03;;;27.80;59.80;;;;;;5051752;28;20104;-80
2022/07/17 03:38:29;;;;;;;2.63;2.00;;;27.80;59.80;;;;;;5052291;28;20029;-81
2022/07/17 03:40:55;;;;;;;2.50;1.85;;;27.80;60.40;;;;;;5050327;28;20057;-81
2022/07/17 03:43:21;;;;;;;2.65;1.75;;;27.80;59.90;;;;;;5050900;28;20103;-82
2022/07/17 03:45:46;;;;;;;3.65;1.88;;;27.80;59.80;;;;;;5052127;28;20546;-82
2022/07/17 03:48:12;;;;;;;3.50;2.00;;;27.90;59.70;;;;;;5050775;28;20067;-81
2022/07/17 03:50:38;;;;;;;2.72;1.90;;;27.80;59.40;;;;;;5033856;28;20032;-79
2022/07/17 03:53:03;;;;;;;3.33;2.00;;;27.80;59.50;;;;;;5050352;28;20036;-80
2022/07/17 03:55:29;;;;;;;6.13;2.38;;;27.80;59.50;;;;;;5051010;28;20036;-81
2022/07/17 03:57:54;;;;;;;2.38;2.17;;;27.90;59.60;;;;;;5051565;28;20048;-81
2022/07/17 04:00:20;;;;;;;3.88;2.08;;;27.80;59.30;;;;;;5050685;28;20358;-82
2022/07/17 04:02:46;;;;;;;4.00;2.42;;;27.80;59.40;;;;;;5051570;28;20350;-83
2022/07/17 04:05:12;;;;;;;2.25;1.67;;;27.90;59.40;;;;;;5050620;28;20036;-82
2022/07/17 04:07:41;;;;;;;3.50;2.20;;;27.80;59.10;;;;;;5051259;28;20060;-82
2022/07/17 04:10:08;;;;;;;3.60;2.33;;;27.80;59.30;;;;;;5050624;28;20056;-83
2022/07/17 04:12:35;;;;;;;2.83;2.17;;;27.90;59.20;;;;;;5049815;28;20078;-82
2022/07/17 04:15:01;;;;;;;3.75;2.33;;;27.80;59.00;;;;;;5051076;28;20025;-82
2022/07/17 04:17:27;;;;;;;4.20;2.28;;;27.80;59.30;;;;;;5049544;28;20086;-82
2022/07/17 04:19:53;;;;;;;2.20;1.88;;;27.80;59.10;;;;;;5051581;28;20046;-82
2022/07/17 04:22:19;;;;;;;3.38;2.20;;;27.80;59.10;;;;;;5049469;28;20453;-82
2022/07/17 04:24:46;;;;;;;1.98;1.77;;;27.80;58.90;;;;;;5051613;28;20382;-82
2022/07/17 04:27:12;;;;;;;4.03;2.40;;;27.70;59.10;;;;;;5050116;28;20044;-82
2022/07/17 04:29:38;;;;;;;4.75;2.47;;;27.70;59.20;;;;;;5050482;28;20041;-82
2022/07/17 04:32:04;;;;;;;2.83;2.28;;;27.70;59.10;;;;;;5049744;28;20036;-81
2022/07/17 04:34:32;;;;;;;4.00;2.00;;;27.70;59.10;;;;;;5051194;28;20554;-81
2022/07/17 04:36:57;;;;;;;4.10;1.80;;;27.70;59.30;;;;;;5051678;28;20051;-82
2022/07/17 04:39:23;;;;;;;1.80;1.63;;;27.70;59.30;;;;;;5050176;28;20576;-81
2022/07/17 04:41:50;;;;;;;2.65;1.98;;;27.70;59.20;;;;;;5049778;28;20103;-79
2022/07/17 04:44:15;;;;;;;2.70;2.10;;;27.70;59.30;;;;;;5050181;28;20483;-81
2022/07/17 04:46:41;;;;;;;3.72;2.30;;;27.70;58.90;;;;;;5051755;28;20025;-80
2022/07/17 04:49:07;;;;;;;3.92;2.30;;;27.70;59.00;;;;;;5049665;28;20044;-80
2022/07/17 04:51:32;;;;;;;3.38;2.13;;;27.70;58.20;;;;;;5050055;28;20033;-79
2022/07/17 04:53:58;;;;;;;2.13;1.92;;;27.60;58.80;;;;;;5050030;28;20082;-79
2022/07/17 04:56:24;;;;;;;3.85;2.40;;;27.70;59.20;;;;;;5050428;28;20024;-80
2022/07/17 04:58:50;;;;;;;3.22;2.10;;;27.60;58.40;;;;;;5051236;28;20021;-79
2022/07/17 05:01:15;;;;;;;2.88;1.85;;;27.60;59.00;;;;;;5048775;28;20053;-79
2022/07/17 05:03:41;;;;;;;2.10;1.80;;;27.60;58.90;;;;;;5050479;28;20029;-80
2022/07/17 05:06:07;;;;;;;6.65;2.58;;;27.60;59.00;;;;;;5048838;28;20115;-79
2022/07/17 05:08:34;;;;;;;4.38;1.85;;;27.60;59.00;;;;;;5047154;28;20079;-79
2022/07/17 05:11:00;;;;;;;2.33;1.77;;;27.60;59.00;;;;;;5054239;28;20428;-80
2022/07/17 05:13:27;;;;;;;3.97;2.00;;;27.60;59.00;;;;;;5053398;28;20055;-79
2022/07/17 05:15:53;;;;;;;2.45;1.77;;;27.60;59.00;;;;;;5051538;28;20025;-79
2022/07/17 05:18:18;;;;;;;2.72;1.75;;;27.60;58.80;;;;;;5054075;28;20112;-80
2022/07/17 05:20:44;;;;;;;4.82;2.10;;;27.70;58.80;;;;;;5036623;28;20029;-79
2022/07/17 05:23:10;;;;;;;1.83;1.65;;;27.60;58.40;;;;;;5053056;28;20050;-79
2022/07/17 05:25:36;;;;;;;2.60;1.75;;;27.60;58.60;;;;;;5054304;28;20025;-79
2022/07/17 05:28:02;;;;;;;3.10;1.80;;;27.60;58.60;;;;;;5052141;28;20088;-79
2022/07/17 05:30:29;;;;;;;3.28;2.35;;;27.60;58.80;;;;;;5046501;28;20472;-79
2022/07/17 05:32:55;;;;;;;4.28;1.80;;;27.60;58.60;;;;;;5053823;28;20449;-79
2022/07/17 05:35:20;;;;;;;2.45;1.30;;;27.70;58.70;;;;;;5054538;28;20078;-81
2022/07/17 05:37:46;;;;;;;4.43;2.20;;;27.70;58.70;;;;;;5054650;28;20029;-81
2022/07/17 05:40:12;;;;;;;3.88;2.00;;;27.70;58.40;;;;;;5047188;28;20036;-81
2022/07/17 05:42:37;;;;;;;4.25;2.10;;;27.60;58.10;;;;;;5035076;28;20029;-83
2022/07/17 05:45:04;;;;;;;5.93;2.92;;;27.60;58.30;;;;;;5048742;28;20056;-83
2022/07/17 05:47:30;;;;;;;3.00;2.08;;;27.50;57.10;;;;;;5043795;28;20041;-77
2022/07/17 05:49:55;;;;;;;4.35;2.15;;;27.50;57.60;;;;;;5031432;28;20037;-81
2022/07/17 05:52:21;;;;;;;4.95;2.47;;;27.60;57.60;;;;;;5050892;28;20389;-82
2022/07/17 05:54:47;;;;;;;3.08;2.00;;;27.60;57.70;;;;;;5053561;28;20029;-81
2022/07/17 05:57:13;;;;;;;3.42;1.75;;;27.50;56.70;;;;;;5054222;28;20021;-81
2022/07/17 05:59:38;;;;;;;2.45;1.92;;;27.60;57.30;;;;;;5054548;28;20665;-81
2022/07/17 06:02:05;;;;;;;6.95;2.42;;;27.60;57.30;;;;;;5055309;28;20044;-81
2022/07/17 06:04:31;;;;;;;3.90;2.05;;;27.60;56.40;;;;;;5050924;28;20025;-81
2022/07/17 06:06:57;;;;;;;3.08;1.75;;;27.60;56.90;;;;;;5036397;28;20033;-81
2022/07/17 06:09:23;;;;;;;4.28;1.98;;;27.60;56.30;;;;;;5054721;28;20035;-82
2022/07/17 06:11:49;;;;;;;2.90;1.80;;;27.60;56.60;;;;;;5054712;28;20071;-82
2022/07/17 06:14:15;;;;;;;3.55;1.92;;;27.60;56.60;;;;;;5054569;28;20117;-82
2022/07/17 06:16:41;;;;;;;2.40;2.00;;;27.70;56.90;;;;;;5051935;28;20108;-81
2022/07/17 06:19:07;;;;;;;2.42;1.67;;;27.70;55.70;;;;;;5052864;28;20116;-82
2022/07/17 06:21:32;;;;;;;3.60;1.80;;;27.50;55.30;;;;;;5054632;28;20464;-81
2022/07/17 06:23:58;;;;;;;2.55;2.13;;;27.50;55.60;;;;;;5054781;28;20116;-81
2022/07/17 06:26:24;;;;;;;2.63;1.70;;;27.50;54.90;;;;;;5053312;28;20082;-81
2022/07/17 06:28:50;;;;;;;3.17;2.03;;;27.60;55.50;;;;;;5036592;28;20500;-81
2022/07/17 06:31:16;;;;;;;2.03;1.67;;;27.60;54.50;;;;;;5054671;28;20033;-81
2022/07/17 06:33:42;;;;;;;4.85;2.10;;;27.60;54.80;;;;;;5053705;28;20035;-81
2022/07/17 06:36:08;;;;;;;4.63;2.00;;;27.70;54.80;;;;;;5054321;28;20021;-81
2022/07/17 06:38:33;;;;;;;4.68;1.88;;;27.70;53.20;;;;;;5053632;28;20017;-81
2022/07/17 06:41:00;;;;;;;3.78;1.55;;;27.70;51.80;;;;;;5052875;28;20033;-81
2022/07/17 06:43:26;;;;;;;2.55;2.00;;;27.70;52.70;;;;;;5054481;28;20064;-81
2022/07/17 06:45:53;;;;;;;1.98;1.25;;;27.70;52.10;;;;;;5054383;28;20029;-81
2022/07/17 06:48:20;;;;;;;4.15;1.75;;;27.70;52.30;;;;;;5053857;28;20031;-81
2022/07/17 06:50:46;;;;;;;1.65;1.27;;;27.70;50.50;;;;;;5052935;28;20534;-81
2022/07/17 06:53:13;;;;;;;1.70;1.58;;;27.70;51.30;;;;;;5054138;28;20156;-81
2022/07/17 06:55:39;;;;;;;1.67;1.30;;;27.80;51.80;;;;;;5053753;28;20052;-82
2022/07/17 06:58:06;;;;;;;2.97;1.55;;;27.80;51.90;;;;;;5053425;28;20114;-82
2022/07/17 07:00:32;;;;;;;10.73;2.20;;;27.90;51.20;;;;;;5054160;28;20025;-81
2022/07/17 07:02:57;;;;;;;1.60;1.20;;;27.90;49.70;;;;;;5034996;28;20029;-81
2022/07/17 07:05:23;;;;;;;3.92;1.52;;;27.90;50.50;;;;;;5053660;28;20032;-82
2022/07/17 07:07:49;;;;;;;5.95;2.05;;;27.90;50.00;;;;;;5052793;28;20461;-82
2022/07/17 07:10:15;;;;;;;1.55;1.45;;;27.90;49.90;;;;;;5053749;28;20040;-82
2022/07/17 07:12:40;;;;;;;1.48;1.33;;;28.00;50.30;;;;;;5053861;28;20067;-82
2022/07/17 07:15:07;;;;;;;1.50;1.20;;;28.00;50.00;;;;;;5054038;28;20606;-81
2022/07/17 07:17:34;;;;;;;2.70;1.85;;;28.00;49.40;;;;;;5054298;28;20465;-81
2022/07/17 07:20:01;;;;;;;8.23;1.80;;;28.00;49.20;;;;;;5053136;28;20024;-81
2022/07/17 07:22:26;;;;;;;3.60;1.65;;;28.00;48.50;;;;;;5053371;28;20151;-82
2022/07/17 07:24:52;;;;;;;5.32;1.75;;;28.00;49.20;;;;;;5053659;28;20035;-81
2022/07/17 07:27:18;;;;;;;3.53;1.67;;;28.00;48.30;;;;;;5053412;28;20033;-81
2022/07/17 07:29:43;;;;;;;1.90;1.33;;;28.10;49.10;;;;;;5053359;28;20389;-82
2022/07/17 07:32:09;;;;;;;3.35;1.70;;;28.20;49.00;;;;;;5051299;28;20865;-81
2022/07/17 07:34:35;;;;;;;2.53;1.50;;;28.20;49.60;;;;;;5035116;28;20036;-81
2022/07/17 07:37:00;;;;;;;4.85;1.85;;;28.30;49.40;;;;;;5053492;28;20154;-81
2022/07/17 07:39:26;;;;;;;4.35;1.52;;;28.30;48.70;;;;;;5053295;28;20063;-81
2022/07/17 07:41:52;;;;;;;2.13;1.45;;;28.40;48.20;;;;;;5053243;28;20033;-81
2022/07/17 07:44:18;;;;;;;3.47;1.30;;;28.40;49.10;;;;;;5050931;28;20053;-81
2022/07/17 07:46:44;;;;;;;2.22;1.10;;;28.50;49.10;;;;;;5051858;28;20025;-81
2022/07/17 07:49:10;;;;;;;2.50;1.13;;;28.50;49.00;;;;;;5053200;28;20025;-81
2022/07/17 07:51:35;;;;;;;5.38;0.95;;;28.60;49.00;;;;;;5053253;28;20056;-81
2022/07/17 07:54:01;;;;;;;1.50;1.20;;;28.70;49.20;;;;;;5053097;28;20071;-81
2022/07/17 07:56:27;;;;;;;1.95;1.30;;;28.80;49.30;;;;;;5050694;28;20476;-81
2022/07/17 07:58:53;;;;;;;1.77;1.38;;;28.80;49.20;;;;;;5052770;28;20429;-81
2022/07/17 08:01:18;;;;;;;2.08;1.45;;;29.00;48.80;;;;;;5053266;28;20079;-81
2022/07/17 08:03:44;;;;;;;3.45;1.50;;;29.00;49.00;;;;;;5051669;28;20029;-82
2022/07/17 08:06:10;;;;;;;1.33;1.00;;;29.10;49.10;;;;;;5034323;28;20127;-82
2022/07/17 08:08:35;;;;;;;2.92;1.58;;;29.10;48.70;;;;;;5052578;28;20056;-82
2022/07/17 08:11:01;;;;;;;1.50;1.08;;;29.10;48.70;;;;;;5052969;28;20036;-82
2022/07/17 08:13:27;;;;;;;2.47;1.42;;;29.30;48.90;;;;;;5051569;28;20025;-81
2022/07/17 08:15:52;;;;;;;3.38;1.75;;;29.40;48.80;;;;;;5052511;28;20079;-82
2022/07/17 08:18:18;;;;;;;3.00;1.50;;;29.30;46.90;;;;;;5052640;28;20074;-82
2022/07/17 08:20:44;;;;;;;2.90;1.90;;;29.30;47.90;;;;;;5052835;28;20033;-82
2022/07/17 08:23:09;;;;;;;2.67;1.50;;;29.30;47.30;;;;;;5051732;28;20036;-82
2022/07/17 08:25:35;;;;;;;2.25;1.20;;;29.40;48.10;;;;;;5052756;28;20025;-82
2022/07/17 08:28:01;;;;;;;1.85;1.30;;;29.50;48.70;;;;;;5051707;28;20029;-82
2022/07/17 08:30:27;;;;;;;2.78;1.25;;;29.60;48.80;;;;;;5052420;28;20110;-82
2022/07/17 08:32:53;;;;;;;2.22;1.13;;;29.70;48.80;;;;;;5051213;28;20381;-82
2022/07/17 08:35:19;;;;;;;5.82;1.60;;;29.70;47.90;;;;;;5034360;28;20025;-82
2022/07/17 08:37:49;;;;;;;2.58;1.20;;;29.70;47.70;;;;;;5051859;28;20021;-82
2022/07/17 08:40:27;;;;;;;2.22;1.30;;;29.70;47.90;;;;;;5051903;28;20067;-82
2022/07/17 08:42:54;;;;;;;1.95;1.27;;;29.80;46.70;;;;;;5051008;28;20112;-82
2022/07/17 08:45:20;;;;;;;4.78;1.80;;;29.80;47.50;;;;;;5051487;28;20083;-81
2022/07/17 08:47:46;;;;;;;2.55;1.70;;;29.80;45.10;;;;;;5046242;28;20508;-82
2022/07/17 08:50:13;;;;;;;2.15;1.30;;;29.90;45.90;;;;;;5049900;28;20040;-81
2022/07/17 08:52:40;;;;;;;2.70;1.48;;;29.90;46.20;;;;;;5048342;28;20143;-81
2022/07/17 08:55:12;;;;;;;1.75;1.20;;;29.90;45.70;;;;;;5046329;28;20413;-82
2022/07/17 08:57:43;;;;;;;8.60;2.00;;;30.10;46.80;;;;;;5047904;28;20017;-83
2022/07/17 09:00:10;;;;;;;3.97;1.48;;;30.20;48.00;;;;;;5041832;28;20029;-83
2022/07/17 09:02:38;;;;;;;5.25;1.60;;;30.20;45.00;;;;;;5049241;28;20021;-83
2022/07/17 09:05:04;;;;;;;1.90;1.20;;;30.30;46.10;;;;;;5046811;28;20481;-83
2022/07/17 09:07:30;;;;;;;5.13;1.70;;;30.30;45.80;;;;;;5046778;28;20109;-87
2022/07/17 09:09:56;;;;;;;2.00;1.60;;;30.30;44.90;;;;;;5051005;28;20414;-82
2022/07/17 09:12:29;;;;;;;1.88;1.00;;;30.40;45.30;;;;;;5045310;28;20108;-80
2022/07/17 09:14:56;;;;;;;2.03;1.30;;;30.40;45.70;;;;;;5044951;28;20088;-83
2022/07/17 09:17:24;;;;;;;3.53;1.35;;;30.50;46.40;;;;;;5043530;28;20455;-80
2022/07/17 09:19:50;;;;;;;3.42;1.40;;;30.60;45.00;;;;;;5036899;28;20029;-84
2022/07/17 09:22:39;;;;;;;1.73;1.20;;;30.70;46.20;;;;;;5041876;28;20036;-83
2022/07/17 09:25:06;;;;;;;2.63;1.00;;;30.90;46.20;;;;;;5030646;28;20037;-84
2022/07/17 09:27:33;;;;;;;3.88;1.20;;;31.00;46.40;;;;;;5040854;28;20029;-82
2022/07/17 09:30:06;;;;;;;3.83;1.33;;;31.10;45.40;;;;;;5043143;28;20060;-79
2022/07/17 09:32:34;;;;;;;1.15;1.02;;;31.20;45.40;;;;;;5043315;28;20486;-79
2022/07/17 09:35:01;;;;;;;1.67;1.17;;;31.20;45.40;;;;;;5040436;28;20025;-82
2022/07/17 09:37:29;;;;;;;1.15;0.93;;;31.30;45.60;;;;;;5041735;28;20028;-80
2022/07/17 09:39:55;;;;;;;2.83;1.30;;;31.40;45.60;;;;;;5042735;28;20727;-80
2022/07/17 09:42:32;;;;;;;1.20;1.08;;;31.50;45.80;;;;;;5038491;28;20072;-81
2022/07/17 09:45:04;;;;;;;1.80;1.00;;;31.60;45.80;;;;;;5036904;28;20073;-81
2022/07/17 09:47:33;;;;;;;1.63;1.02;;;31.70;45.60;;;;;;5041775;28;20024;-81
2022/07/17 09:50:01;;;;;;;1.90;1.25;;;31.80;45.40;;;;;;5037066;28;20038;-81
2022/07/17 09:52:30;;;;;;;2.10;1.30;;;31.80;44.60;;;;;;5024732;28;20026;-80
2022/07/17 09:54:57;;;;;;;1.23;0.80;;;31.90;44.20;;;;;;5038380;28;20057;-82
2022/07/17 09:57:34;;;;;;;1.38;0.98;;;31.90;44.90;;;;;;5045190;28;20026;-83
2022/07/17 10:00:07;;;;;;;3.80;1.77;;;32.00;44.80;;;;;;5042531;28;20026;-83
2022/07/17 10:02:33;;;;;;;2.28;1.45;;;32.10;44.80;;;;;;5041866;28;20511;-82
2022/07/17 10:05:00;;;;;;;18.10;3.10;;;32.10;44.60;;;;;;5041453;28;20033;-82
2022/07/17 10:07:26;;;;;;;4.10;1.40;;;32.20;45.00;;;;;;5045347;28;20051;-83
2022/07/17 10:09:53;;;;;;;1.50;1.10;;;32.30;44.20;;;;;;5023668;28;20066;-79
2022/07/17 10:12:19;;;;;;;4.38;1.45;;;32.30;44.60;;;;;;5058401;28;20484;-79
2022/07/17 10:14:48;;;;;;;1.88;1.20;;;32.40;44.50;;;;;;5053988;28;20020;-79
2022/07/17 10:17:19;;;;;;;2.22;0.95;;;32.40;44.50;;;;;;5054217;28;20033;-84
2022/07/17 10:19:48;;;;;;;2.85;1.30;;;32.50;44.40;;;;;;5050374;28;20025;-83
2022/07/17 10:22:14;;;;;;;3.97;2.03;;;32.60;43.80;;;;;;5052128;28;20067;-80
2022/07/17 10:24:52;;;;;;;1.90;1.23;;;32.70;43.90;;;;;;5048339;28;20027;-80
2022/07/17 10:27:19;;;;;;;11.45;1.58;;;32.70;42.80;;;;;;5046974;28;20064;-80
2022/07/17 10:29:45;;;;;;;2.53;1.42;;;32.80;43.20;;;;;;5051742;28;20480;-84
2022/07/17 10:32:18;;;;;;;1.52;1.00;;;32.70;41.70;;;;;;5052618;28;20091;-83
2022/07/17 10:34:47;;;;;;;2.42;1.30;;;32.80;42.80;;;;;;5049957;28;20021;-82
2022/07/17 10:37:24;;;;;;;3.95;1.25;;;32.90;43.10;;;;;;5051394;28;20385;-82
2022/07/17 10:40:04;;;;;;;2.75;1.63;;;33.00;43.00;;;;;;5051337;28;20017;-82
2022/07/17 10:42:59;;;;;;;3.60;1.55;;;33.20;42.00;;;;;;5050489;28;20063;-83
2022/07/17 10:45:27;;;;;;;2.72;1.20;;;33.30;42.50;;;;;;5050573;28;20075;-82
2022/07/17 10:48:19;;;;;;;3.47;1.80;;;33.30;42.60;;;;;;5051184;28;20102;-82
2022/07/17 10:50:48;;;;;;;1.20;1.10;;;33.40;42.00;;;;;;5044543;28;20076;-82
2022/07/17 10:53:23;;;;;;;1.33;1.23;;;33.50;42.60;;;;;;5050043;28;20353;-85
2022/07/17 10:55:53;;;;;;;3.67;1.35;;;33.70;41.60;;;;;;5050111;28;20461;-84
2022/07/17 10:58:18;;;;;;;1.42;1.15;;;33.70;40.30;;;;;;5050711;28;20032;-84
2022/07/17 11:01:03;;;;;;;3.53;1.27;;;33.80;41.00;;;;;;5048300;28;20021;-83
2022/07/17 11:03:30;;;;;;;3.75;1.30;;;33.90;40.70;;;;;;5048945;28;20384;-84
2022/07/17 11:06:08;;;;;;;2.20;1.27;;;34.00;41.20;;;;;;5050899;28;20106;-85
2022/07/17 11:08:45;;;;;;;4.20;1.58;;;34.20;41.00;;;;;;5053014;28;20017;-85
2022/07/17 11:11:11;;;;;;;4.47;1.63;;;34.30;39.00;;;;;;5024855;28;20038;-84
2022/07/17 11:13:37;;;;;;;4.15;1.17;;;34.20;38.70;;;;;;5051530;28;20481;-84
2022/07/17 11:16:03;;;;;;;5.68;1.45;;;34.30;40.10;;;;;;5050653;28;20036;-81
2022/07/17 11:18:29;;;;;;;1.75;1.50;;;34.40;40.30;;;;;;5050554;28;20120;-79
2022/07/17 11:21:02;;;;;;;5.55;1.50;;;34.50;39.90;;;;;;5044826;28;20031;-80
2022/07/17 11:23:32;;;;;;;1.90;1.20;;;34.60;39.50;;;;;;5047416;28;20052;-79
2022/07/17 11:26:05;;;;;;;;;;;34.80;40.10;;;;;;5043139;28;20090;-80
2022/07/17 11:28:43;;;;;;;2.20;1.50;;;34.90;40.10;;;;;;5043785;28;19957;-80
2022/07/17 11:31:19;;;;;;;1.48;1.02;;;35.00;39.20;;;;;;5043934;28;20071;-80
2022/07/17 11:33:55;;;;;;;3.75;1.45;;;35.20;39.60;;;;;;5043166;28;20048;-80
2022/07/17 11:36:27;;;;;;;2.20;1.42;;;35.30;38.70;;;;;;5046681;28;20100;-80
2022/07/17 11:38:54;;;;;;;2.42;1.38;;;35.60;38.80;;;;;;5042456;28;20032;-80
2022/07/17 11:41:20;;;;;;;2.53;1.10;;;35.80;38.30;;;;;;5024023;28;20435;-80
2022/07/17 11:43:47;;;;;;;1.70;1.20;;;36.20;38.90;;;;;;5042915;28;20063;-80
2022/07/17 11:46:16;;;;;;;2.55;1.58;;;36.60;37.20;;;;;;5041469;28;20108;-81
2022/07/17 11:48:43;;;;;;;1.55;1.20;;;37.00;35.20;;;;;;5041239;28;20480;-81
2022/07/17 11:51:09;;;;;;;3.42;1.38;;;37.40;37.00;;;;;;5041436;28;20032;-78
2022/07/17 11:53:37;;;;;;;1.75;1.27;;;37.70;36.90;;;;;;5042679;28;20045;-86
2022/07/17 11:56:04;;;;;;;2.58;1.20;;;38.00;35.80;;;;;;5023888;28;20381;-85
2022/07/17 11:58:42;;;;;;;1.65;1.20;;;38.20;36.00;;;;;;5026073;28;20036;-85
2022/07/17 12:01:07;;;;;;;2.38;1.15;;;38.40;35.80;;;;;;5042589;28;20436;-85
2022/07/17 12:03:33;;;;;;;1.13;1.00;;;38.70;35.40;;;;;;5041913;28;20060;-83
2022/07/17 12:05:59;;;;;;;3.15;1.13;;;38.70;34.80;;;;;;5042793;28;20083;-85
2022/07/17 12:08:25;;;;;;;5.18;1.70;;;38.70;34.00;;;;;;5042504;28;20056;-84
2022/07/17 12:11:01;;;;;;;4.57;1.45;;;38.80;34.80;;;;;;5044415;28;20473;-84
2022/07/17 12:13:48;;;;;;;3.92;1.00;;;39.00;35.20;;;;;;5048226;28;20118;-80
2022/07/17 12:16:19;;;;;;;1.77;0.98;;;39.20;35.00;;;;;;5043444;28;20052;-84
2022/07/17 12:18:56;;;;;;;2.08;1.45;;;39.30;34.90;;;;;;5050001;28;20437;-80
2022/07/17 12:21:24;;;;;;;2.08;1.20;;;39.30;34.90;;;;;;5044859;28;20037;-81
2022/07/17 12:23:59;;;;;;;3.20;1.70;;;39.40;35.80;;;;;;5029271;28;20033;-84
2022/07/17 12:26:25;;;;;;;4.25;1.60;;;39.50;34.70;;;;;;5042844;28;20047;-84
2022/07/17 12:28:50;;;;;;;3.35;1.23;;;39.50;34.30;;;;;;5045586;28;20029;-84
2022/07/17 12:31:16;;;;;;;2.10;1.10;;;39.50;34.90;;;;;;5042288;28;20075;-83
2022/07/17 12:33:43;;;;;;;3.20;1.13;;;39.50;34.30;;;;;;5044894;28;20017;-83
2022/07/17 12:36:09;;;;;;;9.32;1.50;;;39.60;34.80;;;;;;5030324;28;20037;-86
2022/07/17 12:38:36;;;;;;;4.50;1.52;;;39.50;35.20;;;;;;5030712;28;20033;-85
2022/07/17 12:41:01;;;;;;;3.95;1.35;;;39.60;34.50;;;;;;5025656;28;20028;-79
2022/07/17 12:43:27;;;;;;;6.10;1.52;;;39.70;33.80;;;;;;5046219;28;20056;-85
2022/07/17 12:45:53;;;;;;;1.83;1.30;;;39.70;34.20;;;;;;5046401;28;20087;-86
2022/07/17 12:48:18;;;;;;;3.08;1.13;;;39.70;34.60;;;;;;5050413;28;20067;-85